Airport View

Enter AWOS ICAO identifier for current METAR.

ex. KFNL

KGDJ 031635Z AUTO 20004KT 10SM CLR 32/22 A3002 RMK AO2 T03150224

3 Jul 2020 16:48

Frequency: 118.925

Phone: 817-573-7514

Other Area AWOS: KCPT - KSEP - KMWL - KFWS

TAF KNFW 0223/0323 VRB06KT 9999 VCTS FEW030CB BKN130 BKN180 QNH2985INS TEMPO 0223/0301 VRB20G40KT 1200 +TSRA BKN030CB FM030100 VRB06KT 8000 SHRA FEW030 BKN130 BKN180 QNH2985INS FM030400 VRB06KT 9999 NSW FEW030 BKN130 BKN180 QNH2990INS AUTOMATED SENSOR METWATCH 0304 TIL 0411 T26/0312Z T37/0321Z FN20070